createdAt,value
2018-06-16T00:00:12.907Z,33.7
2018-06-16T00:01:03.556Z,33.7
2018-06-16T00:01:53.024Z,33.7
2018-06-16T00:02:43.633Z,33.6
2018-06-16T00:03:32.605Z,33.7
2018-06-16T00:04:23.767Z,33.7
2018-06-16T00:05:13.282Z,33.7
2018-06-16T00:06:03.372Z,33.7
2018-06-16T00:06:54.012Z,33.7
2018-06-16T00:07:44.557Z,33.7
2018-06-16T00:08:34.297Z,33.7
2018-06-16T00:09:24.376Z,33.6
2018-06-16T00:10:14.817Z,33.7
2018-06-16T00:11:04.474Z,33.6
2018-06-16T00:11:54.014Z,33.6
2018-06-16T00:12:44.614Z,33.6
2018-06-16T00:13:34.127Z,33.6
2018-06-16T00:14:25.079Z,33.6
2018-06-16T00:15:14.648Z,33.6
2018-06-16T00:16:04.351Z,33.6
2018-06-16T00:16:55.249Z,33.6
2018-06-16T00:17:45.043Z,33.6
2018-06-16T00:18:35.370Z,33.6
2018-06-16T00:19:24.310Z,33.6
2018-06-16T00:20:14.657Z,33.6
2018-06-16T00:21:05.523Z,33.6
2018-06-16T00:21:55.642Z,33.6
2018-06-16T00:22:45.389Z,33.6
2018-06-16T00:23:35.725Z,33.6
2018-06-16T00:24:24.687Z,33.6
2018-06-16T00:25:15.867Z,33.6
2018-06-16T00:26:05.677Z,33.6
2018-06-16T00:26:55.431Z,33.6
2018-06-16T00:27:45.248Z,33.6
2018-06-16T00:28:35.279Z,33.6
2018-06-16T00:29:25.084Z,33.6
2018-06-16T00:30:15.713Z,33.6
2018-06-16T00:31:05.772Z,33.6
2018-06-16T00:31:56.125Z,33.6
2018-06-16T00:32:46.182Z,33.6
2018-06-16T00:33:35.663Z,33.6
2018-06-16T00:34:26.308Z,33.6
2018-06-16T00:35:16.096Z,33.6
2018-06-16T00:36:05.858Z,33.6
2018-06-16T00:36:56.480Z,33.6
2018-06-16T00:37:46.828Z,33.6
2018-06-16T00:38:36.357Z,33.6
2018-06-16T00:39:26.393Z,33.6
2018-06-16T00:40:16.735Z,33.6
2018-06-16T00:41:06.517Z,33.6
2018-06-16T00:41:56.645Z,33.6
2018-06-16T00:42:46.931Z,33.6
2018-06-16T00:43:36.742Z,33.6
2018-06-16T00:44:26.202Z,33.6
2018-06-16T00:45:17.410Z,33.6
2018-06-16T00:46:06.951Z,33.6
2018-06-16T00:46:56.384Z,33.6
2018-06-16T00:47:47.281Z,33.6
2018-06-16T00:48:37.093Z,33.5
2018-06-16T00:49:26.592Z,33.5
2018-06-16T00:50:16.697Z,33.5
2018-06-16T00:51:07.855Z,33.6
2018-06-16T00:51:57.350Z,33.5
2018-06-16T00:52:47.666Z,33.5
2018-06-16T00:53:37.755Z,33.5
2018-06-16T00:54:28.084Z,33.5
2018-06-16T00:55:17.915Z,33.5
2018-06-16T00:56:07.970Z,33.5
2018-06-16T00:56:58.030Z,33.5
2018-06-16T00:57:47.217Z,33.5
2018-06-16T00:58:37.300Z,33.5
2018-06-16T00:59:27.907Z,33.5
2018-06-16T01:00:17.492Z,33.5
2018-06-16T01:01:07.569Z,33.5
2018-06-16T01:01:57.632Z,33.5
2018-06-16T01:02:47.759Z,33.5
2018-06-16T01:03:38.332Z,33.5
2018-06-16T01:04:27.539Z,33.5
2018-06-16T01:05:18.473Z,33.5
2018-06-16T01:06:08.301Z,33.5
2018-06-16T01:06:57.756Z,33.4
2018-06-16T01:07:49.118Z,33.5
2018-06-16T01:08:38.711Z,33.5
2018-06-16T01:09:29.294Z,33.4
2018-06-16T01:10:19.324Z,33.5
2018-06-16T01:11:08.849Z,33.4
2018-06-16T01:11:59.128Z,33.4
2018-06-16T01:12:49.223Z,33.4
2018-06-16T01:13:39.246Z,33.4
2018-06-16T01:14:29.347Z,33.4
2018-06-16T01:15:19.694Z,33.4
2018-06-16T01:16:09.450Z,33.4
2018-06-16T01:16:58.695Z,33.4
2018-06-16T01:17:49.279Z,33.4
2018-06-16T01:18:39.387Z,33.4
2018-06-16T01:19:29.429Z,33.4
2018-06-16T01:20:20.110Z,33.4
2018-06-16T01:21:09.574Z,33.4
2018-06-16T01:21:59.391Z,33.4
2018-06-16T01:22:50.289Z,33.4
2018-06-16T01:23:40.068Z,33.4
2018-06-16T01:24:29.829Z,33.4
2018-06-16T01:25:20.477Z,33.4
2018-06-16T01:26:09.961Z,33.4
2018-06-16T01:27:00.270Z,33.4
2018-06-16T01:27:50.372Z,33.4
2018-06-16T01:28:40.162Z,33.4
2018-06-16T01:29:29.687Z,33.4
2018-06-16T01:30:20.849Z,33.4
2018-06-16T01:31:10.045Z,33.4
2018-06-16T01:31:59.868Z,33.4
2018-06-16T01:32:50.785Z,33.4
2018-06-16T01:33:39.944Z,33.4
2018-06-16T01:34:30.611Z,33.4
2018-06-16T01:35:20.920Z,33.4
2018-06-16T01:36:10.748Z,33.4
2018-06-16T01:37:01.094Z,33.4
2018-06-16T01:37:51.420Z,33.4
2018-06-16T01:38:41.206Z,33.4
2018-06-16T01:39:31.286Z,33.4
2018-06-16T01:40:21.337Z,33.4
2018-06-16T01:41:11.355Z,33.4
2018-06-16T01:42:01.169Z,33.3
2018-06-16T01:42:51.510Z,33.4
2018-06-16T01:43:41.274Z,33.3
2018-06-16T01:44:31.054Z,33.3
2018-06-16T01:45:21.699Z,33.3
2018-06-16T01:46:11.755Z,33.3
2018-06-16T01:47:01.843Z,33.3
2018-06-16T01:47:52.181Z,33.3
2018-06-16T01:48:41.956Z,33.3
2018-06-16T01:49:31.458Z,33.3
2018-06-16T01:50:21.571Z,33.3
2018-06-16T01:51:11.288Z,33.3
2018-06-16T01:52:01.376Z,33.3
2018-06-16T01:52:52.004Z,33.3
2018-06-16T01:53:41.773Z,33.3
2018-06-16T01:54:32.405Z,33.3
2018-06-16T01:55:22.467Z,33.3
2018-06-16T01:56:12.514Z,33.3
2018-06-16T01:57:02.293Z,33.3
2018-06-16T01:57:52.874Z,33.3
2018-06-16T01:58:42.199Z,33.3
2018-06-16T01:59:33.030Z,33.3
2018-06-16T02:00:22.852Z,33.3
2018-06-16T02:01:12.652Z,33.3
2018-06-16T02:02:03.251Z,33.3
2018-06-16T02:02:52.761Z,33.4
2018-06-16T02:03:42.807Z,33.4
2018-06-16T02:04:33.211Z,33.4
2018-06-16T02:05:23.203Z,33.4
2018-06-16T02:06:13.301Z,33.4
2018-06-16T02:07:03.445Z,33.5
2018-06-16T02:07:53.713Z,33.6
2018-06-16T02:08:42.957Z,33.6
2018-06-16T02:09:33.588Z,33.6
2018-06-16T02:10:23.313Z,33.7
2018-06-16T02:11:13.445Z,33.8
2018-06-16T02:12:04.029Z,33.8
2018-06-16T02:12:53.798Z,33.9
2018-06-16T02:13:44.131Z,33.9
2018-06-16T02:14:33.926Z,34.1
2018-06-16T02:15:23.689Z,34.1
2018-06-16T02:16:13.790Z,34.2
2018-06-16T02:17:04.082Z,34.3
2018-06-16T02:17:54.263Z,34.3
2018-06-16T02:18:44.515Z,34.4
2018-06-16T02:19:34.314Z,34.5
2018-06-16T02:20:24.675Z,34.6
2018-06-16T02:21:14.737Z,34.7
2018-06-16T02:22:04.213Z,34.8
2018-06-16T02:22:54.346Z,34.8
2018-06-16T02:23:44.612Z,34.9
2018-06-16T02:24:34.676Z,35
2018-06-16T02:25:25.022Z,35.1
2018-06-16T02:26:14.826Z,35.2
2018-06-16T02:27:04.899Z,35.3
2018-06-16T02:27:54.646Z,35.4
2018-06-16T02:28:45.008Z,35.4
2018-06-16T02:29:34.574Z,35.6
2018-06-16T02:30:25.163Z,35.6
2018-06-16T02:31:14.712Z,35.8
2018-06-16T02:32:05.288Z,35.9
2018-06-16T02:32:55.344Z,35.9
2018-06-16T02:33:44.870Z,36.1
2018-06-16T02:34:35.777Z,36.2
2018-06-16T02:35:24.720Z,36.3
2018-06-16T02:36:15.904Z,36.4
2018-06-16T02:37:05.690Z,36.4
2018-06-16T02:37:55.209Z,36.6
2018-06-16T02:38:45.272Z,36.7
2018-06-16T02:39:36.244Z,36.8
2018-06-16T02:40:25.924Z,36.9
2018-06-16T02:41:15.424Z,37
2018-06-16T02:42:05.820Z,37.1
2018-06-16T02:42:55.825Z,37.3
2018-06-16T02:43:45.893Z,37.4
2018-06-16T02:44:35.943Z,37.5
2018-06-16T02:45:26.620Z,37.6
2018-06-16T02:46:16.658Z,37.7
2018-06-16T02:47:06.757Z,37.8
2018-06-16T02:47:56.769Z,37.9
2018-06-16T02:48:46.337Z,38.1
2018-06-16T02:49:36.343Z,38.1
2018-06-16T02:50:28.458Z,38.3
2018-06-16T02:51:16.445Z,38.4
2018-06-16T02:52:06.873Z,38.4
2018-06-16T02:52:56.395Z,38.6
2018-06-16T02:53:47.272Z,38.7
2018-06-16T02:54:37.321Z,38.8
2018-06-16T02:55:26.794Z,38.9
2018-06-16T02:56:16.570Z,39.1
2018-06-16T02:57:07.219Z,39.2
2018-06-16T02:57:57.268Z,39.3
2018-06-16T02:58:47.479Z,39.4
2018-06-16T02:59:36.809Z,39.5
2018-06-16T03:00:27.171Z,39.6
2018-06-16T03:01:17.237Z,39.8
2018-06-16T03:02:07.585Z,39.9
2018-06-16T03:02:56.817Z,40
2018-06-16T03:03:47.994Z,40.1
2018-06-16T03:04:37.812Z,40.3
2018-06-16T03:05:27.802Z,40.4
2018-06-16T03:06:17.968Z,40.5
2018-06-16T03:07:07.688Z,40.6
2018-06-16T03:07:58.277Z,40.7
2018-06-16T03:08:48.374Z,40.8
2018-06-16T03:09:38.159Z,40.9
2018-06-16T03:10:28.443Z,41.1
2018-06-16T03:11:18.272Z,41.3
2018-06-16T03:12:08.062Z,41.3
2018-06-16T03:12:57.881Z,41.4
2018-06-16T03:13:48.228Z,41.6
2018-06-16T03:14:38.515Z,41.6
2018-06-16T03:15:28.937Z,41.8
2018-06-16T03:16:18.996Z,41.8
2018-06-16T03:17:08.212Z,41.9
2018-06-16T03:17:58.214Z,41.9
2018-06-16T03:18:47.751Z,42
2018-06-16T03:19:38.090Z,42
2018-06-16T03:20:28.958Z,42.1
2018-06-16T03:21:19.290Z,42.1
2018-06-16T03:22:09.410Z,42.1
2018-06-16T03:22:59.171Z,42.1
2018-06-16T03:23:49.470Z,42.1
2018-06-16T03:24:39.017Z,42.2
2018-06-16T03:25:29.165Z,42.2
2018-06-16T03:26:19.449Z,42.3
2018-06-16T03:27:09.233Z,42.3
2018-06-16T03:27:59.540Z,42.3
2018-06-16T03:28:49.893Z,42.4
2018-06-16T03:29:39.414Z,42.4
2018-06-16T03:30:29.291Z,42.4
2018-06-16T03:31:20.125Z,42.5
2018-06-16T03:32:09.628Z,42.5
2018-06-16T03:32:59.653Z,42.5
2018-06-16T03:33:50.041Z,42.6
2018-06-16T03:34:39.803Z,42.6
2018-06-16T03:35:29.308Z,42.6
2018-06-16T03:36:21.020Z,42.6
2018-06-16T03:37:10.271Z,42.6
2018-06-16T03:37:59.222Z,42.6
2018-06-16T03:38:50.350Z,42.6
2018-06-16T03:39:40.153Z,42.6
2018-06-16T03:40:30.784Z,42.6
2018-06-16T03:41:20.359Z,42.6
2018-06-16T03:42:10.871Z,42.7
2018-06-16T03:43:00.667Z,42.7
2018-06-16T03:43:50.474Z,42.7
2018-06-16T03:44:39.933Z,42.7
2018-06-16T03:45:31.142Z,42.7
2018-06-16T03:46:20.995Z,42.7
2018-06-16T03:47:11.300Z,42.7
2018-06-16T03:48:00.807Z,42.7
2018-06-16T03:48:50.568Z,42.7
2018-06-16T03:49:40.634Z,42.7
2018-06-16T03:50:31.266Z,42.7
2018-06-16T03:51:21.630Z,42.7
2018-06-16T03:52:11.714Z,42.7
2018-06-16T03:53:01.722Z,42.7
2018-06-16T03:53:51.510Z,42.7
2018-06-16T03:54:41.616Z,42.7
2018-06-16T03:55:31.916Z,42.7
2018-06-16T03:56:22.029Z,42.7
2018-06-16T03:57:11.239Z,42.7
2018-06-16T03:58:01.829Z,42.7
2018-06-16T03:58:52.177Z,42.7
2018-06-16T03:59:42.222Z,42.7
2018-06-16T04:00:31.704Z,42.7
2018-06-16T04:01:21.521Z,42.7
2018-06-16T04:02:11.600Z,42.7
2018-06-16T04:03:02.245Z,42.6
2018-06-16T04:03:52.305Z,42.7
2018-06-16T04:04:42.330Z,42.6
2018-06-16T04:05:32.672Z,42.7
2018-06-16T04:06:22.465Z,42.7
2018-06-16T04:07:11.954Z,42.6
2018-06-16T04:08:02.062Z,42.6
2018-06-16T04:08:51.866Z,42.6
2018-06-16T04:09:42.436Z,42.6
2018-06-16T04:10:32.491Z,42.6
2018-06-16T04:11:22.281Z,42.6
2018-06-16T04:12:13.223Z,42.6
2018-06-16T04:13:03.071Z,42.6
2018-06-16T04:13:53.379Z,42.6
2018-06-16T04:14:43.404Z,42.6
2018-06-16T04:15:33.418Z,42.6
2018-06-16T04:16:22.991Z,42.6
2018-06-16T04:17:13.584Z,42.6
2018-06-16T04:18:03.342Z,42.6
2018-06-16T04:18:53.697Z,42.6
2018-06-16T04:19:43.188Z,42.6
2018-06-16T04:20:33.853Z,42.6
2018-06-16T04:21:23.633Z,42.6
2018-06-16T04:22:13.668Z,42.6
2018-06-16T04:23:02.967Z,42.6
2018-06-16T04:23:53.829Z,42.6
2018-06-16T04:24:44.122Z,42.6
2018-06-16T04:25:34.237Z,42.6
2018-06-16T04:26:24.293Z,42.6
2018-06-16T04:27:13.779Z,42.6
2018-06-16T04:28:03.602Z,42.6
2018-06-16T04:28:54.174Z,42.6
2018-06-16T04:29:43.959Z,42.6
2018-06-16T04:30:34.672Z,42.6
2018-06-16T04:31:24.126Z,42.6
2018-06-16T04:32:14.770Z,42.6
2018-06-16T04:33:04.235Z,42.6
2018-06-16T04:33:54.305Z,42.6
2018-06-16T04:34:44.636Z,42.6
2018-06-16T04:35:34.217Z,42.6
2018-06-16T04:36:24.843Z,42.6
2018-06-16T04:37:14.362Z,42.6
2018-06-16T04:38:04.044Z,42.6
2018-06-16T04:38:55.229Z,42.6
2018-06-16T04:39:45.348Z,42.6
2018-06-16T04:40:34.627Z,42.6
2018-06-16T04:41:23.855Z,42.5
2018-06-16T04:42:14.964Z,42.5
2018-06-16T04:43:05.608Z,42.6
2018-06-16T04:43:55.338Z,42.5
2018-06-16T04:44:45.147Z,42.6
2018-06-16T04:45:36.899Z,42.5
2018-06-16T04:46:25.813Z,42.5
2018-06-16T04:47:15.328Z,42.5
2018-06-16T04:48:05.171Z,42.5
2018-06-16T04:48:55.446Z,42.5
2018-06-16T04:49:46.088Z,42.5
2018-06-16T04:50:35.847Z,42.5
2018-06-16T04:51:25.918Z,42.5
2018-06-16T04:52:15.988Z,42.5
2018-06-16T04:53:05.729Z,42.5
2018-06-16T04:53:55.261Z,42.5
2018-06-16T04:54:45.995Z,42.5
2018-06-16T04:55:35.972Z,42.5
2018-06-16T04:56:26.336Z,42.5
2018-06-16T04:57:16.465Z,42.5
2018-06-16T04:58:06.220Z,42.5
2018-06-16T04:58:55.945Z,42.5
2018-06-16T04:59:45.965Z,42.5
2018-06-16T05:00:36.645Z,42.5
2018-06-16T05:01:25.909Z,42.5
2018-06-16T05:02:16.197Z,42.5
2018-06-16T05:03:06.815Z,42.5
2018-06-16T05:03:56.620Z,42.5
2018-06-16T05:04:47.034Z,42.5
2018-06-16T05:05:36.510Z,42.5
2018-06-16T05:06:26.770Z,42.5
2018-06-16T05:07:16.860Z,42.5
2018-06-16T05:08:07.559Z,42.5
2018-06-16T05:08:56.721Z,42.5
2018-06-16T05:09:47.048Z,42.5
2018-06-16T05:10:37.400Z,42.5
2018-06-16T05:11:27.470Z,42.5
2018-06-16T05:12:17.270Z,42.4
2018-06-16T05:13:07.623Z,42.4
2018-06-16T05:13:57.640Z,42.4
2018-06-16T05:14:47.400Z,42.4
2018-06-16T05:15:37.779Z,42.4
2018-06-16T05:16:27.533Z,42.4
2018-06-16T05:17:17.883Z,42.4
2018-06-16T05:18:07.496Z,42.4
2018-06-16T05:18:58.006Z,42.4
2018-06-16T05:19:48.040Z,42.4
2018-06-16T05:20:37.848Z,42.4
2018-06-16T05:21:27.619Z,42.4
2018-06-16T05:22:18.015Z,42.4
2018-06-16T05:23:08.366Z,42.4
2018-06-16T05:23:58.207Z,42.4
2018-06-16T05:24:48.727Z,42.4
2018-06-16T05:25:38.437Z,42.4
2018-06-16T05:26:28.606Z,42.4
2018-06-16T05:27:17.584Z,42.4
2018-06-16T05:28:08.952Z,42.4
2018-06-16T05:28:57.943Z,42.4
2018-06-16T05:29:48.897Z,42.4
2018-06-16T05:30:38.661Z,42.4
2018-06-16T05:31:28.931Z,42.4
2018-06-16T05:32:19.358Z,42.4
2018-06-16T05:33:09.381Z,42.4
2018-06-16T05:33:58.613Z,42.4
2018-06-16T05:34:48.086Z,42.4
2018-06-16T05:35:38.475Z,42.4
2018-06-16T05:36:29.637Z,42.4
2018-06-16T05:37:19.470Z,42.4
2018-06-16T05:38:09.744Z,42.3
2018-06-16T05:38:59.530Z,42.3
2018-06-16T05:39:49.119Z,42.4
2018-06-16T05:40:39.780Z,42.3
2018-06-16T05:41:29.501Z,42.3
2018-06-16T05:42:20.111Z,42.3
2018-06-16T05:43:10.124Z,42.3
2018-06-16T05:43:59.625Z,42.3
2018-06-16T05:44:50.231Z,42.3
2018-06-16T05:45:39.512Z,42.3
2018-06-16T05:46:30.168Z,42.3
2018-06-16T05:47:20.168Z,42.3
2018-06-16T05:48:10.005Z,42.3
2018-06-16T05:49:00.334Z,42.3
2018-06-16T05:49:49.815Z,42.4
2018-06-16T05:50:40.727Z,42.4
2018-06-16T05:51:30.230Z,42.4
2018-06-16T05:52:20.823Z,42.5
2018-06-16T05:53:10.140Z,42.5
2018-06-16T05:54:01.586Z,42.6
2018-06-16T05:54:49.943Z,42.6
2018-06-16T05:55:40.319Z,42.6
2018-06-16T05:56:29.819Z,42.6
2018-06-16T05:57:20.522Z,42.7
2018-06-16T05:59:01.120Z,42.7
2018-06-16T05:59:50.568Z,42.8
2018-06-16T06:00:41.575Z,42.8
2018-06-16T06:01:31.598Z,42.8
2018-06-16T06:02:21.326Z,42.8
2018-06-16T06:03:11.737Z,42.8
2018-06-16T06:04:01.293Z,42.8
2018-06-16T06:04:51.282Z,42.8
2018-06-16T06:05:41.357Z,42.9
2018-06-16T06:06:31.998Z,42.9
2018-06-16T06:07:21.708Z,42.9
2018-06-16T06:08:11.770Z,42.8
2018-06-16T06:09:02.161Z,42.8
2018-06-16T06:09:51.645Z,42.8
2018-06-16T06:10:41.733Z,42.8
2018-06-16T06:11:32.435Z,42.8
2018-06-16T06:12:22.111Z,42.8
2018-06-16T06:13:12.519Z,42.8
2018-06-16T06:14:02.249Z,42.8
2018-06-16T06:14:52.646Z,42.8
2018-06-16T06:15:43.035Z,42.8
2018-06-16T06:16:32.130Z,42.8
2018-06-16T06:17:22.507Z,42.8
2018-06-16T06:18:11.744Z,42.8
2018-06-16T06:19:02.366Z,42.8
2018-06-16T06:19:52.423Z,42.8
2018-06-16T06:20:42.196Z,42.8
2018-06-16T06:21:32.540Z,42.8
2018-06-16T06:22:22.889Z,42.8
2018-06-16T06:23:12.976Z,42.8
2018-06-16T06:24:02.708Z,42.8
2018-06-16T06:24:53.321Z,42.8
2018-06-16T06:25:43.452Z,42.8
2018-06-16T06:26:33.246Z,42.8
2018-06-16T06:27:23.246Z,42.8
2018-06-16T06:28:13.345Z,42.8
2018-06-16T06:29:03.367Z,42.8
2018-06-16T06:29:52.642Z,42.8
2018-06-16T06:30:42.652Z,42.8
2018-06-16T06:31:33.578Z,42.8
2018-06-16T06:32:23.885Z,42.8
2018-06-16T06:33:12.914Z,42.8
2018-06-16T06:34:03.506Z,42.7
2018-06-16T06:34:53.250Z,42.7
2018-06-16T06:35:43.289Z,42.7
2018-06-16T06:36:34.259Z,42.7
2018-06-16T06:37:24.052Z,42.7
2018-06-16T06:38:14.064Z,42.7
2018-06-16T06:39:04.165Z,42.7
2018-06-16T06:39:54.180Z,42.7
2018-06-16T06:40:43.398Z,42.7
2018-06-16T06:41:34.301Z,42.7
2018-06-16T06:42:24.111Z,42.7
2018-06-16T06:43:14.442Z,42.7
2018-06-16T06:44:04.293Z,42.7
2018-06-16T06:44:54.272Z,42.7
2018-06-16T06:45:44.659Z,42.6
2018-06-16T06:46:34.965Z,42.6
2018-06-16T06:47:24.475Z,42.6
2018-06-16T06:48:14.519Z,42.6
2018-06-16T06:49:05.189Z,42.6
2018-06-16T06:49:54.126Z,42.6
2018-06-16T06:50:44.726Z,42.6
2018-06-16T06:51:34.834Z,42.6
2018-06-16T06:52:25.494Z,42.6
2018-06-16T06:53:15.208Z,42.6
2018-06-16T06:54:05.313Z,42.6
2018-06-16T06:54:54.771Z,42.6
2018-06-16T06:55:45.434Z,42.6
2018-06-16T06:56:34.966Z,42.6
2018-06-16T06:57:25.597Z,42.6
2018-06-16T06:58:14.458Z,42.6
2018-06-16T06:59:05.701Z,42.6
2018-06-16T06:59:55.481Z,42.6
2018-06-16T07:00:45.769Z,42.6
2018-06-16T07:01:35.133Z,42.6
2018-06-16T07:02:25.905Z,42.6
2018-06-16T07:03:16.250Z,42.6
2018-06-16T07:04:06.198Z,42.6
2018-06-16T07:04:56.363Z,42.6
2018-06-16T07:05:45.177Z,42.6
2018-06-16T07:06:35.948Z,42.6
2018-06-16T07:07:25.749Z,42.6
2018-06-16T07:08:16.375Z,42.6
2018-06-16T07:09:06.429Z,42.6
2018-06-16T07:09:56.462Z,42.6
2018-06-16T07:10:46.964Z,42.6
2018-06-16T07:11:36.861Z,42.6
2018-06-16T07:12:26.392Z,42.6
2018-06-16T07:13:15.887Z,42.6
2018-06-16T07:14:05.973Z,36.1
2018-06-16T07:14:56.858Z,39.8
2018-06-16T07:15:46.655Z,50.8
2018-06-16T07:16:37.277Z,53.7
2018-06-16T07:17:27.072Z,53.7
2018-06-16T07:18:16.839Z,53.4
2018-06-16T07:19:07.486Z,52.9
2018-06-16T07:19:57.250Z,52.4
2018-06-16T07:21:37.431Z,51.5
2018-06-16T07:22:27.723Z,51.1
2018-06-16T07:23:17.198Z,50.7
2018-06-16T07:24:07.832Z,50.3
2018-06-16T07:24:57.904Z,50
2018-06-16T07:25:47.460Z,49.7
2018-06-16T07:26:37.040Z,49.4
2018-06-16T07:27:28.080Z,49.2
2018-06-16T07:28:18.152Z,48.9
2018-06-16T07:29:08.295Z,46.9
2018-06-16T07:29:58.309Z,55.1
2018-06-16T07:30:47.616Z,58.5
2018-06-16T07:31:38.203Z,58.6
2018-06-16T07:32:28.245Z,57.7
2018-06-16T07:33:18.292Z,57
2018-06-16T07:34:08.442Z,56.8
2018-06-16T07:34:58.454Z,57.1
2018-06-16T07:35:48.524Z,57.6
2018-06-16T07:36:38.242Z,57.8
2018-06-16T07:37:28.643Z,57.9
2018-06-16T07:38:17.890Z,57.9
2018-06-16T07:39:08.759Z,57.9
2018-06-16T07:39:58.058Z,58.1
2018-06-16T07:40:48.644Z,58.2
2018-06-16T07:41:39.036Z,58.3
2018-06-16T07:42:29.256Z,58.4
2018-06-16T07:43:18.291Z,58.5
2018-06-16T07:45:49.232Z,58.7
2018-06-16T07:46:38.533Z,58.8
2018-06-16T07:47:29.349Z,58.9
2018-06-16T07:48:19.709Z,59
2018-06-16T07:49:09.531Z,59.2
2018-06-16T07:49:59.299Z,59.3
2018-06-16T07:50:49.899Z,59.4
2018-06-16T07:51:39.713Z,59.6
2018-06-16T07:52:29.715Z,59.7
2018-06-16T07:53:18.949Z,59.8
2018-06-16T07:54:09.616Z,59.9
2018-06-16T07:54:59.919Z,60
2018-06-16T07:55:49.440Z,60.1
2018-06-16T07:56:39.663Z,60.3
2018-06-16T07:57:30.098Z,60.4
2018-06-16T07:58:20.462Z,60.6
2018-06-16T07:59:09.476Z,60.7
2018-06-16T08:00:00.019Z,60.9
2018-06-16T08:00:50.689Z,61
2018-06-16T08:01:39.957Z,61.1
2018-06-16T08:02:30.333Z,61.1
2018-06-16T08:03:20.322Z,61.1
2018-06-16T08:04:10.639Z,61.3
2018-06-16T08:05:00.158Z,61.4
2018-06-16T08:05:50.794Z,61.5
2018-06-16T08:06:41.090Z,61.6
2018-06-16T08:07:30.422Z,61.7
2018-06-16T08:08:20.962Z,61.8
2018-06-16T08:09:11.007Z,61.9
2018-06-16T08:10:00.853Z,62.1
2018-06-16T08:10:51.424Z,62.2
2018-06-16T08:11:41.254Z,62.3
2018-06-16T08:12:31.102Z,62.4
2018-06-16T08:13:21.370Z,62.5
2018-06-16T08:14:10.915Z,62.6
2018-06-16T08:15:01.796Z,62.8
2018-06-16T08:15:49.982Z,62.9
2018-06-16T08:16:41.649Z,63.1
2018-06-16T08:17:31.963Z,63.2
2018-06-16T08:18:22.090Z,63.2
2018-06-16T08:19:11.581Z,63.3
2018-06-16T08:20:01.608Z,63.4
2018-06-16T08:20:52.262Z,63.6
2018-06-16T08:21:42.060Z,63.8
2018-06-16T08:22:31.772Z,63.9
2018-06-16T08:23:22.128Z,63.4
2018-06-16T08:24:12.538Z,62.5
2018-06-16T08:25:02.575Z,61.6
2018-06-16T08:25:52.374Z,61.3
2018-06-16T08:26:42.670Z,61.7
2018-06-16T08:27:32.228Z,62.8
2018-06-16T08:28:22.527Z,63.5
2018-06-16T08:29:12.624Z,63.9
2018-06-16T08:30:02.705Z,64.1
2018-06-16T08:30:52.496Z,64
2018-06-16T08:31:42.547Z,63.3
2018-06-16T08:32:32.017Z,62.6
2018-06-16T08:33:22.919Z,62.8
2018-06-16T08:34:12.746Z,63.3
2018-06-16T08:35:03.366Z,63.7
2018-06-16T08:35:52.784Z,63.9
2018-06-16T08:36:43.447Z,64.2
2018-06-16T08:37:33.238Z,64.4
2018-06-16T08:38:23.654Z,64.6
2018-06-16T08:39:13.069Z,64.7
2018-06-16T08:40:02.945Z,64.9
2018-06-16T08:40:53.251Z,65
2018-06-16T08:41:43.800Z,65.1
2018-06-16T08:42:33.659Z,65.2
2018-06-16T08:43:24.810Z,65.3
2018-06-16T08:44:13.265Z,65.3
2018-06-16T08:45:03.605Z,65.2
2018-06-16T08:45:53.849Z,65.3
2018-06-16T08:46:43.999Z,65.3
2018-06-16T08:47:34.296Z,65.4
2018-06-16T08:48:23.808Z,65.6
2018-06-16T08:49:14.394Z,65.6
2018-06-16T08:50:04.202Z,65.3
2018-06-16T08:50:54.011Z,64.4
2018-06-16T08:51:44.600Z,63.4
2018-06-16T08:52:34.634Z,62.8
2018-06-16T08:53:24.489Z,62.9
2018-06-16T08:54:14.520Z,63.8
2018-06-16T08:55:04.885Z,64.8
2018-06-16T08:55:54.669Z,65.3
2018-06-16T08:56:45.029Z,65.6
2018-06-16T08:57:34.484Z,65.8
2018-06-16T08:58:24.857Z,65.7
2018-06-16T08:59:15.208Z,65.9
2018-06-16T09:00:05.047Z,66
2018-06-16T09:00:55.306Z,66.1
2018-06-16T09:01:45.253Z,65.9
2018-06-16T09:02:34.636Z,65.7
2018-06-16T09:03:25.257Z,65.9
2018-06-16T09:04:15.621Z,66.3
2018-06-16T09:05:05.111Z,66.8
2018-06-16T09:05:55.778Z,66.8
2018-06-16T09:06:45.257Z,66.1
2018-06-16T09:07:35.544Z,65.3
2018-06-16T09:08:25.331Z,64.4
2018-06-16T09:09:15.665Z,63.8
2018-06-16T09:10:05.223Z,63.4
2018-06-16T09:10:55.800Z,63.3
2018-06-16T09:11:45.926Z,63.3
2018-06-16T09:12:36.177Z,63.2
2018-06-16T09:13:26.022Z,63.1
2018-06-16T09:14:15.790Z,62.9
2018-06-16T09:15:06.415Z,62.6
2018-06-16T09:15:55.413Z,62.5
2018-06-16T09:16:46.321Z,62.4
2018-06-16T09:17:36.601Z,62.3
2018-06-16T09:18:26.150Z,62.5
2018-06-16T09:19:16.221Z,63.3
2018-06-16T09:20:06.608Z,64.3
2018-06-16T09:20:56.311Z,64.6
2018-06-16T09:21:46.947Z,64
2018-06-16T09:22:37.021Z,63.4
2018-06-16T09:23:26.343Z,63.5
2018-06-16T09:24:17.110Z,64
2018-06-16T09:25:07.188Z,64
2018-06-16T09:25:55.869Z,63.6
2018-06-16T09:26:47.071Z,63.4
2018-06-16T09:27:36.826Z,63.3
2018-06-16T09:28:26.617Z,62.9
2018-06-16T09:29:16.928Z,62.3
2018-06-16T09:30:06.488Z,61.9
2018-06-16T09:30:56.887Z,61.6
2018-06-16T09:31:48.416Z,61.3
2018-06-16T09:32:37.761Z,61.2
2018-06-16T09:33:26.997Z,61.1
2018-06-16T09:34:17.857Z,60.9
2018-06-16T09:35:07.118Z,61.1
2018-06-16T09:35:58.017Z,61.7
2018-06-16T09:36:47.818Z,62
2018-06-16T09:37:37.884Z,61.8
2018-06-16T09:38:27.634Z,61.4
2018-06-16T09:39:18.015Z,61.2
2018-06-16T09:40:08.057Z,61
2018-06-16T09:40:58.434Z,61
2018-06-16T09:41:47.977Z,61.6
2018-06-16T09:42:38.741Z,62.8
2018-06-16T09:43:27.731Z,64
2018-06-16T09:44:18.629Z,64.7
2018-06-16T09:45:08.822Z,65.1
2018-06-16T09:45:58.240Z,65.3
2018-06-16T09:46:48.566Z,65.6
2018-06-16T09:47:38.643Z,65.9
2018-06-16T09:48:28.540Z,66.3
2018-06-16T09:49:18.769Z,66.7
2018-06-16T09:50:09.106Z,67
2018-06-16T09:50:58.607Z,67.1
2018-06-16T09:51:49.286Z,67.2
2018-06-16T09:52:39.010Z,67.4
2018-06-16T09:53:28.857Z,67.6
2018-06-16T09:54:19.138Z,67.3
2018-06-16T09:55:09.536Z,66.2
2018-06-16T09:55:59.302Z,65.1
2018-06-16T09:56:49.612Z,64.9
2018-06-16T09:57:38.843Z,65.8
2018-06-16T09:58:29.450Z,66.8
2018-06-16T09:59:19.808Z,67.4
2018-06-16T10:00:09.397Z,67.3
2018-06-16T10:00:58.572Z,67.2
2018-06-16T10:01:49.456Z,67.4
2018-06-16T10:02:40.078Z,67.8
2018-06-16T10:03:29.949Z,68.1
2018-06-16T10:04:19.663Z,67.8
2018-06-16T10:05:10.296Z,66.7
2018-06-16T10:05:58.951Z,65.6
2018-06-16T10:06:50.135Z,64.8
2018-06-16T10:07:40.487Z,64.1
2018-06-16T10:08:30.281Z,63.7
2018-06-16T10:09:19.887Z,63.4
